• Join FlightAware (Why Join?)
  • Login
  • US Flag 
04:55AM EDT


 

Airport Tracker/Info


-or-


 

Live Flight TrackerFlight Track Log ✈ NKS416 ✈ 14-Mar-2014 ✈ KFLL - KIAG

Flight Track Log - Related Links

Times and Time Zones

All times are in EDT time to prevent confusion due to time zone crossing. See the NKS416 flight status page for this flight to view local times or setup timezone preferences in your user account.

Time Position Orientation Groundspeed Altitude Reporting Facility
EDT Latitude Longitude Course Direction KTS MPH feet Rate Location/Type
10:12PM 26.0750 -80.1319 82° East 158 182 1,100  Level Miami Center
10:14PM 26.0825 -80.0744 82° East 211 243 2,400 1,920 Climbing Miami Center
10:14PM 26.0928 -79.9961 82° East 264 304 5,000 3,300 Climbing Miami Center
10:15PM 26.0906 -79.9914 118° Southeast 272 313 5,800 2,640 Climbing Miami Center
10:15PM 26.1089 -79.9225 73° East 292 336 7,700 2,340 Climbing Miami Center
10:16PM 26.1481 -79.8425 61° Northeast 292 336 10,400 1,800 Climbing Miami Center
10:17PM 26.1978 -79.7533 58° Northeast 311 358 11,300 1,380 Climbing Miami Center
10:19PM 26.2811 -79.6606 45° Northeast 355 409 13,300 1,740 Climbing Miami Center
10:24PM 26.8409 -79.3102 30° Northeast 451 519 22,400 1,500 Climbing FlightAware ADS-B (KMCO)
10:25PM 27.0188 -79.1978 30° Northeast 474 545 23,900 1,080 Climbing FlightAware ADS-B (KMCO)
10:27PM 27.1946 -79.0867 30° Northeast 476 548 25,800 1,380 Climbing FlightAware ADS-B (KMCO)
10:27PM 27.2506 -79.0510 30° Northeast 469 540 26,800 1,560 Climbing FlightAware ADS-B (KMCO)
10:28PM 27.3254 -79.0037 29° Northeast 465 535 27,700 1,500 Climbing FlightAware ADS-B (KMCO)
10:29PM 27.3881 -78.9730 17° North 449 517 28,600 1,500 Climbing FlightAware ADS-B (KMCO)
10:29PM 27.4669 -78.9594 North 437 503 29,500 1,200 Climbing FlightAware ADS-B (KMCO)
10:30PM 27.5306 -78.9497 North 439 505 30,000 1,380 Climbing FlightAware ADS-B (KMCO)
10:31PM 27.6493 -78.9317 North 429 494 31,600 1,500 Climbing FlightAware ADS-B (KMCO)
10:32PM 27.7490 -78.9170 North 420 483 32,800 960 Climbing FlightAware ADS-B (KMCO)
10:32PM 27.8097 -78.9083 North 431 496 32,900 1,140 Climbing FlightAware ADS-B (KMCO)
10:33PM 27.9095 -78.8933 North 416 479 34,400 1,380 Climbing FlightAware ADS-B (KMCO)
10:34PM 27.9796 -78.8826 North 408 470 35,000 480 Climbing FlightAware ADS-B (KMCO)
10:34PM 28.0378 -78.8742 North 418 481 35,000  Level FlightAware ADS-B (KMCO)
10:35PM 28.1197 -78.8625 North 432 497 35,000  Level FlightAware ADS-B (KMCO)
10:35PM 28.1838 -78.8535 North 443 510 35,000  Level FlightAware ADS-B (KMCO)
10:36PM 28.2568 -78.8425 North 450 518 35,000  Level FlightAware ADS-B (KMCO)
10:37PM 28.4161 -78.8179 North 447 514 35,000  Level FlightAware ADS-B (KMCO)
10:41PM 28.8682 -78.7503 North 453 521 35,000  Level FlightAware ADS-B (KMCO)
10:42PM 29.0069 -78.7308 North 445 512 35,000  Level Jacksonville Center
10:43PM 29.1292 -78.7092 North 445 512 35,000  Level Jacksonville Center
10:44PM 29.2500 -78.6992 North 450 518 35,000  Level Jacksonville Center
10:45PM 29.3681 -78.6728 11° North 446 513 35,000  Level Jacksonville Center
10:46PM 29.5031 -78.6503 North 448 516 35,000  Level Jacksonville Center
10:47PM 29.6339 -78.6350 North 445 512 35,000  Level Jacksonville Center
10:48PM 29.7564 -78.6178 North 447 514 35,000  Level Jacksonville Center
10:49PM 29.8789 -78.5956 North 447 514 35,000  Level Jacksonville Center
10:50PM 29.9992 -78.5733 North 445 512 35,000  Level Jacksonville Center
10:51PM 30.1281 -78.5581 North 445 512 35,000 -60 Level Jacksonville Center
10:52PM 30.2506 -78.5406 North 445 512 34,900  Descending Jacksonville Center
10:53PM 30.3753 -78.5228 North 446 513 35,000  Climbing Jacksonville Center
10:54PM 30.4997 -78.5028 North 453 521 34,900 -60 Descending Jacksonville Center
10:55PM 30.6222 -78.4825 North 444 511 34,900  Level Jacksonville Center
10:56PM 30.7428 -78.4625 North 437 503 35,000  Climbing Jacksonville Center
10:57PM 30.8714 -78.4444 North 445 512 35,000 -60 Level Jacksonville Center
10:58PM 30.9919 -78.4242 North 445 512 34,900  Descending Jacksonville Center
10:59PM 31.1058 -78.4042 North 445 512 35,000  Climbing Jacksonville Center
11:00PM 31.2203 -78.3939 North 432 497 35,000  Level Jacksonville Center
11:01PM 31.3406 -78.3686 10° North 426 490 35,000  Level Jacksonville Center
11:02PM 31.4547 -78.3508 North 421 484 35,000  Level Jacksonville Center
11:03PM 31.5711 -78.3356 North 418 481 35,000  Level Jacksonville Center
11:04PM 31.6997 -78.3119 North 423 487 35,000  Level Jacksonville Center
11:05PM 31.8158 -78.2942 North 418 481 35,000 -60 Level Jacksonville Center
11:06PM 31.9322 -78.2761 North 423 487 34,900  Descending Jacksonville Center
11:07PM 32.0464 -78.2581 North 423 487 35,000  Climbing Jacksonville Center
11:08PM 32.1375 -78.2436 North 423 487 35,000  Level Jacksonville Center
11:09PM 32.2661 -78.2200 North 423 487 35,000  Level Jacksonville Center
11:10PM 32.3822 -78.1967 10° North 423 487 35,000 -60 Level Jacksonville Center
11:11PM 32.4983 -78.1808 North 423 487 34,900 -60 Descending Jacksonville Center
11:12PM 32.6167 -78.1625 North 423 487 34,900  Level Jacksonville Center
11:14PM 32.8497 -78.1222 North 428 493 35,000  Climbing Washington Center
11:15PM 32.9647 -78.1033 North 428 493 34,900 -60 Descending Washington Center
11:16PM 33.0842 -78.0869 North 428 493 34,900  Level Washington Center
11:17PM 33.2014 -78.0681 North 428 493 35,000  Climbing Washington Center
11:18PM 33.3164 -78.0467 North 428 493 35,000  Level Washington Center
11:19PM 33.4358 -78.0278 North 428 493 35,000  Level Washington Center
11:20PM 33.5528 -78.0086 North 428 493 35,000 -60 Level Washington Center
11:21PM 33.6700 -77.9897 North 428 493 34,900  Descending Washington Center
11:22PM 33.7872 -77.9706 North 428 493 35,000  Climbing Washington Center
11:23PM 33.9192 -77.9492 North 428 493 34,900  Descending Washington Center
11:24PM 34.0322 -77.9300 North 433 498 35,000  Climbing Washington Center
11:25PM 34.1517 -77.9056 10° North 433 498 35,000  Level Washington Center
11:26PM 34.2897 -77.8869 North 438 504 35,000  Level Washington Center
11:27PM 34.4108 -77.8753 North 443 510 35,000  Level Washington Center
11:28PM 34.5319 -77.8761 360° North 443 510 35,000  Level Washington Center
11:34PM 35.2245 -77.9506 354° North 434 499 35,000  Level FlightAware ADS-B
11:36PM 35.4658 -77.9786 354° North 424 488 35,000  Level FlightAware ADS-B
11:37PM 35.5443 -77.9877 354° North 424 488 35,000  Level FlightAware ADS-B
11:37PM 35.6233 -77.9967 354° North 425 489 35,000  Level FlightAware ADS-B
11:38PM 35.6903 -78.0045 354° North 425 489 35,000  Level FlightAware ADS-B
11:39PM 35.7486 -78.0112 354° North 425 489 35,000  Level FlightAware ADS-B
11:39PM 35.8280 -78.0206 354° North 426 490 35,000  Level FlightAware ADS-B
11:40PM 35.9361 -78.0331 354° North 427 491 35,000  Level FlightAware ADS-B
11:41PM 36.0600 -78.0483 354° North 423 487 35,000  Level Washington Center
11:42PM 36.1806 -78.0625 355° North 423 487 35,000  Level Washington Center
11:43PM 36.2994 -78.0764 355° North 423 487 35,000  Level Washington Center
11:44PM 36.4283 -78.0908 355° North 416 479 35,000  Level Washington Center
11:45PM 36.5511 -78.1078 354° North 421 484 35,000  Level Washington Center
11:46PM 36.6697 -78.1194 355° North 426 490 35,000  Level Washington Center
11:47PM 36.7906 -78.1361 354° North 426 490 35,000  Level Washington Center
11:48PM 36.9111 -78.1506 355° North 426 490 35,000  Level Washington Center
11:49PM 37.0381 -78.1625 356° North 437 503 35,000  Level Washington Center
11:50PM 37.1567 -78.1769 354° North 437 503 35,000  Level Washington Center
11:51PM 37.2669 -78.1886 355° North 444 511 35,000  Level Washington Center
11:59PM 38.2156 -78.3961 357° North 397 457 35,000  Level Cleveland Center
12:00AM 38.2398 -78.3006 356° North  Level FlightAware Approximate
12:00AM 38.3400 -78.4083 356° North 442 509 35,000  Level Cleveland Center
12:01AM 38.3546 -78.3121 356° North  Level FlightAware Approximate
12:01AM 38.4636 -78.4236 354° North 444 511 35,000  Level Cleveland Center
12:02AM 38.4626 -78.3651 339° North  Level FlightAware Approximate
12:02AM 38.5872 -78.4353 356° North 444 511 35,000  Level Cleveland Center
12:03AM 38.5787 -78.4035 357° North  Level FlightAware Approximate
12:03AM 38.7125 -78.4494 355° North 446 513 35,000  Level Cleveland Center
12:04AM 38.6942 -78.4124 357° North  Level FlightAware Approximate
12:04AM 38.8353 -78.4631 355° North 444 511 35,000  Level Cleveland Center
12:05AM 38.9603 -78.4761 355° North 445 512 35,000  Level Cleveland Center
12:06AM 39.0853 -78.4903 355° North 445 512 35,000  Level Cleveland Center
12:07AM 39.2117 -78.5031 356° North 448 516 35,000  Level Cleveland Center
12:09AM 39.4910 -78.5339 355° North 453 521 35,000  Level FlightAware ADS-B (KWWD)
12:10AM 39.5886 -78.5456 355° North 450 518 35,000  Level Cleveland Center
12:11AM 39.7175 -78.5592 355° North 458 527 35,000  Level Cleveland Center
12:12AM 39.8294 -78.5706 356° North 460 529 35,000  Level Cleveland Center
12:13AM 39.9550 -78.5864 354° North 459 528 35,000  Level Cleveland Center
12:19AM 40.7236 -78.6736 355° North 471 542 35,000  Level FlightAware ADS-B (CYYZ)
12:19AM 40.7794 -78.6800 355° North 470 541 35,000  Level FlightAware ADS-B (CYYZ)
12:20AM 40.8450 -78.6877 355° North 471 542 35,000  Level FlightAware ADS-B (CYYZ)
12:20AM 40.8543 -78.6888 355° North 471 542 35,000 -600 Level FlightAware ADS-B (CYYZ)
12:22AM 41.1138 -78.7190 355° North 479 551 33,800 -840 Descending FlightAware ADS-B (CYYZ)
12:23AM 41.2568 -78.7356 356° North 477 549 32,700 -1,080 Descending FlightAware ADS-B (CYYZ)
12:23AM 41.3196 -78.7430 355° North 470 541 32,200 -1,140 Descending FlightAware ADS-B (CYYZ)
12:24AM 41.3816 -78.7503 355° North 473 544 31,600 -1,140 Descending FlightAware ADS-B (CYYZ)
12:24AM 41.4487 -78.7579 355° North 477 549 31,100 -1,140 Descending FlightAware ADS-B (CYYZ)
12:25AM 41.5202 -78.7665 355° North 481 554 30,500 -1,140 Descending FlightAware ADS-B (CYYZ)
12:25AM 41.5864 -78.7743 355° North 483 556 30,000 -1,020 Descending FlightAware ADS-B (CYYZ)
12:26AM 41.6525 -78.7824 355° North 486 559 29,500 -1,140 Descending FlightAware ADS-B (CYYZ)
12:26AM 41.7197 -78.7905 356° North 487 560 28,900 -1,440 Descending FlightAware ADS-B (CYYZ)
12:27AM 41.7889 -78.7985 355° North 488 562 28,100 -1,920 Descending FlightAware ADS-B (CYYZ)
12:27AM 41.8527 -78.8061 355° North 482 555 27,000 -2,640 Descending FlightAware ADS-B (CYYZ)
12:28AM 41.9147 -78.8134 355° North 477 549 25,500 -2,940 Descending FlightAware ADS-B (CYYZ)
12:28AM 41.9865 -78.8220 355° North 466 536 24,100 -2,820 Descending FlightAware ADS-B (CYYZ)
12:29AM 42.0496 -78.8296 355° North 457 526 22,700 -2,940 Descending FlightAware ADS-B (CYYZ)
12:29AM 42.1120 -78.8371 355° North 450 518 21,200 -3,120 Descending FlightAware ADS-B (CYYZ)
12:30AM 42.1751 -78.8447 355° North 444 511 19,600 -3,000 Descending FlightAware ADS-B (CYYZ)
12:30AM 42.2355 -78.8521 355° North 438 504 18,200 -2,760 Descending FlightAware ADS-B (CYYZ)
12:31AM 42.2959 -78.8594 355° North 429 494 16,800 -2,940 Descending FlightAware ADS-B (CYYZ)
12:31AM 42.3346 -78.8625 North 433 498 15,800 -3,120 Descending FlightAware ADS-B (CYYZ)
12:31AM 42.3523 -78.8594 11° North 444 511 15,300 -2,820 Descending FlightAware ADS-B (CYYZ)
12:32AM 42.4129 -78.8309 20° North 443 510 13,900 -2,640 Descending FlightAware ADS-B (CYYZ)
12:32AM 42.4690 -78.8018 21° North 436 502 12,700 -2,040 Descending FlightAware ADS-B (CYYZ)
12:33AM 42.5248 -78.7705 22° Northeast 415 478 11,900 -1,320 Descending FlightAware ADS-B (CYYZ)
12:33AM 42.5736 -78.7426 23° Northeast 388 447 11,400 -900 Descending FlightAware ADS-B (CYYZ)
12:34AM 42.6225 -78.7142 23° Northeast 360 414 11,000 -720 Descending FlightAware ADS-B (CYYZ)
12:34AM 42.6678 -78.6873 23° Northeast 338 389 10,700 -1,140 Descending FlightAware ADS-B (CYYZ)
12:35AM 42.7079 -78.6626 24° Northeast 315 362 9,900 -1,920 Descending FlightAware ADS-B (CYYZ)
12:35AM 42.7259 -78.6515 24° Northeast 313 360 9,300 -2,400 Descending FlightAware ADS-B (CYYZ)
12:35AM 42.7456 -78.6392 24° Northeast 312 359 8,700 -2,220 Descending FlightAware ADS-B (CYYZ)
12:36AM 42.7643 -78.6279 24° Northeast 312 359 8,200 -2,340 Descending FlightAware ADS-B (CYYZ)
12:36AM 42.7847 -78.6157 23° Northeast 308 354 7,500 -2,280 Descending FlightAware ADS-B (CYYZ)
12:36AM 42.8167 -78.5969 23° Northeast 305 351 6,700 -2,100 Descending FlightAware ADS-B (CYYZ)
12:37AM 42.8356 -78.5860 22° Northeast 299 344 6,100 -2,220 Descending FlightAware ADS-B (CYYZ)
12:37AM 42.8566 -78.5742 22° Northeast 295 339 5,600 -1,980 Descending FlightAware ADS-B (CYYZ)
12:37AM 42.8728 -78.5655 21° North 291 335 5,200 -480 Descending FlightAware ADS-B (CYYZ)
12:40AM 43.0440 -78.5957 316° Northwest 234 269 4,300 -360 Descending FlightAware ADS-B (CYYZ)
12:40AM 43.0617 -78.6195 316° Northwest 231 266 4,300  Level FlightAware ADS-B (CYYZ)
12:40AM 43.0766 -78.6415 310° West 207 238 4,300  Level FlightAware ADS-B (CYYZ)
12:40AM 43.0794 -78.6471 305° West 199 229 4,300 -1,680 Level FlightAware ADS-B (CYYZ)
12:41AM 43.0947 -78.6992 305° West 196 226 2,800 -1,380 Descending Cleveland Center
12:42AM 43.1097 -78.7656 287° West 179 206 1,800 -600 Descending Cleveland Center
12:43AM 43.1086 -78.8206 268° West 154 177 1,700 -240 Descending Cleveland Center
12:44AM 43.1083 -78.8742 270° West 139 160 1,400 -240 Descending Cleveland Center
12:45AM 43.1081 -78.9197 270° West 136 157 1,300 -120 Descending Cleveland Center